createdAt,value
2018-11-01T00:02:02.480Z,17.45
2018-11-01T00:04:30.052Z,17.46
2018-11-01T00:06:57.782Z,17.41
2018-11-01T00:09:25.369Z,17.39
2018-11-01T00:11:52.974Z,17.43
2018-11-01T00:14:20.560Z,17.43
2018-11-01T00:19:29.817Z,17.42
2018-11-01T00:21:57.435Z,17.42
2018-11-01T00:24:25.099Z,17.42
2018-11-01T00:26:52.810Z,17.40
2018-11-01T00:29:20.463Z,17.39
2018-11-01T00:31:48.039Z,17.39
2018-11-01T00:34:15.789Z,17.39
2018-11-01T00:36:43.385Z,17.41
2018-11-01T00:39:12.391Z,17.39
2018-11-01T00:41:40.122Z,17.35
2018-11-01T00:44:07.749Z,17.35
2018-11-01T00:46:35.509Z,17.32
2018-11-01T00:49:03.164Z,17.35
2018-11-01T00:51:30.763Z,17.38
2018-11-01T00:53:58.703Z,17.41
2018-11-01T00:56:26.484Z,17.43
2018-11-01T00:58:54.080Z,17.42
2018-11-01T01:01:21.766Z,17.39
2018-11-01T01:03:49.367Z,17.38
2018-11-01T01:06:16.993Z,17.35
2018-11-01T01:08:44.716Z,17.36
2018-11-01T01:11:12.353Z,17.36
2018-11-01T01:13:39.955Z,17.35
2018-11-01T01:16:07.557Z,17.35
2018-11-01T01:18:35.220Z,17.36
2018-11-01T01:21:02.853Z,17.34
2018-11-01T01:23:30.468Z,17.33
2018-11-01T01:25:58.183Z,17.31
2018-11-01T01:28:25.798Z,17.32
2018-11-01T01:30:53.403Z,17.31
2018-11-01T01:33:21.048Z,17.31
2018-11-01T01:35:48.712Z,17.31
2018-11-01T01:38:16.363Z,17.33
2018-11-01T01:40:44.017Z,17.36
2018-11-01T01:43:11.620Z,17.34
2018-11-01T01:45:39.236Z,17.36
2018-11-01T01:48:06.933Z,17.35
2018-11-01T01:50:34.690Z,17.35
2018-11-01T01:53:02.326Z,17.35
2018-11-01T01:55:29.924Z,17.34
2018-11-01T01:57:57.596Z,17.30
2018-11-01T02:00:25.283Z,17.34
2018-11-01T02:02:52.960Z,17.32
2018-11-01T02:05:20.552Z,17.31
2018-11-01T02:07:48.248Z,17.31
2018-11-01T02:10:16.870Z,17.29
2018-11-01T02:12:44.470Z,17.30
2018-11-01T02:15:15.285Z,17.28
2018-11-01T02:17:43.496Z,17.27
2018-11-01T02:20:12.709Z,17.25
2018-11-01T02:22:41.169Z,17.28
2018-11-01T02:25:09.004Z,17.30
2018-11-01T02:27:42.177Z,17.28
2018-11-01T02:30:11.971Z,17.26
2018-11-01T02:32:40.193Z,17.24
2018-11-01T02:35:09.181Z,17.21
2018-11-01T02:37:37.120Z,17.24
2018-11-01T02:40:05.006Z,17.22
2018-11-01T02:42:32.668Z,17.19
2018-11-01T02:45:00.311Z,17.21
2018-11-01T02:47:27.940Z,17.22
2018-11-01T02:49:55.668Z,17.24
2018-11-01T02:52:23.561Z,17.24
2018-11-01T02:54:51.261Z,17.24
2018-11-01T02:57:18.846Z,17.24
2018-11-01T02:59:46.531Z,17.24
2018-11-01T03:02:14.096Z,17.24
2018-11-01T03:04:41.733Z,17.22
2018-11-01T03:07:09.397Z,17.23
2018-11-01T03:09:37.089Z,17.21
2018-11-01T03:12:05.377Z,17.19
2018-11-01T03:14:33.054Z,17.18
2018-11-01T03:17:00.745Z,17.18
2018-11-01T03:19:28.488Z,17.19
2018-11-01T03:21:56.187Z,17.16
2018-11-01T03:24:23.791Z,17.17
2018-11-01T03:26:51.481Z,17.19
2018-11-01T03:29:19.130Z,17.17
2018-11-01T03:31:46.868Z,17.15
2018-11-01T03:34:14.666Z,17.16
2018-11-01T03:36:42.327Z,17.17
2018-11-01T03:39:11.356Z,17.19
2018-11-01T03:41:38.988Z,17.20
2018-11-01T03:44:06.658Z,17.22
2018-11-01T03:46:34.549Z,17.20
2018-11-01T03:49:02.149Z,17.18
2018-11-01T03:51:29.783Z,17.21
2018-11-01T03:53:57.478Z,17.18
2018-11-01T03:56:25.128Z,17.16
2018-11-01T03:58:52.733Z,17.18
2018-11-01T04:01:20.343Z,17.19
2018-11-01T04:03:48.095Z,17.16
2018-11-01T04:06:15.700Z,17.18
2018-11-01T04:08:43.551Z,17.15
2018-11-01T04:11:11.178Z,17.15
2018-11-01T04:13:39.071Z,17.12
2018-11-01T04:16:06.788Z,17.12
2018-11-01T04:18:34.476Z,17.10
2018-11-01T04:21:02.115Z,17.07
2018-11-01T04:23:29.828Z,17.08
2018-11-01T04:25:57.495Z,17.13
2018-11-01T04:28:25.127Z,17.13
2018-11-01T04:30:52.724Z,17.14
2018-11-01T04:33:20.423Z,17.13
2018-11-01T04:35:48.119Z,17.10
2018-11-01T04:38:15.699Z,17.14
2018-11-01T04:40:43.434Z,17.10
2018-11-01T04:43:11.023Z,17.12
2018-11-01T04:45:38.676Z,17.10
2018-11-01T04:48:06.326Z,17.09
2018-11-01T04:50:33.933Z,17.09
2018-11-01T04:53:01.577Z,17.06
2018-11-01T04:55:29.260Z,17.05
2018-11-01T04:57:56.928Z,17.05
2018-11-01T05:00:24.631Z,17.06
2018-11-01T05:02:52.266Z,17.05
2018-11-01T05:05:19.972Z,17.03
2018-11-01T05:07:47.621Z,17.03
2018-11-01T05:10:15.256Z,16.98
2018-11-01T05:12:42.945Z,17.03
2018-11-01T05:15:10.592Z,17.00
2018-11-01T05:17:38.683Z,17.03
2018-11-01T05:20:08.098Z,17.02
2018-11-01T05:22:35.780Z,17.01
2018-11-01T05:25:03.397Z,17.02
2018-11-01T05:27:31.066Z,17.06
2018-11-01T05:29:58.717Z,17.08
2018-11-01T05:32:26.349Z,17.09
2018-11-01T05:34:53.984Z,17.12
2018-11-01T05:37:21.633Z,17.11
2018-11-01T05:39:49.291Z,17.11
2018-11-01T05:42:17.176Z,17.05
2018-11-01T05:44:44.886Z,17.04
2018-11-01T05:47:12.776Z,17.04
2018-11-01T05:49:40.461Z,17.04
2018-11-01T05:52:08.232Z,17.03
2018-11-01T05:54:35.965Z,17.02
2018-11-01T05:57:03.641Z,17.02
2018-11-01T05:59:31.335Z,17.01
2018-11-01T06:02:01.581Z,17.02
2018-11-01T06:04:29.177Z,17.02
2018-11-01T06:06:56.843Z,17.01
2018-11-01T06:09:29.427Z,17.02
2018-11-01T06:11:57.062Z,17.01
2018-11-01T06:14:24.997Z,17.00
2018-11-01T06:16:52.643Z,16.96
2018-11-01T06:19:20.332Z,16.97
2018-11-01T06:21:47.966Z,16.96
2018-11-01T06:24:16.005Z,16.98
2018-11-01T06:26:43.648Z,16.96
2018-11-01T06:29:11.311Z,16.93
2018-11-01T06:31:39.039Z,16.94
2018-11-01T06:34:08.599Z,16.95
2018-11-01T06:36:36.344Z,16.95
2018-11-01T06:39:06.172Z,16.96
2018-11-01T06:41:33.869Z,16.97
2018-11-01T06:44:01.577Z,16.96
2018-11-01T06:46:29.193Z,16.97
2018-11-01T06:48:56.959Z,16.96
2018-11-01T06:51:24.577Z,17.00
2018-11-01T06:53:52.238Z,17.01
2018-11-01T06:56:19.897Z,17.02
2018-11-01T06:58:47.657Z,17.00
2018-11-01T07:01:15.256Z,17.00
2018-11-01T07:03:43.181Z,17.00
2018-11-01T07:06:10.796Z,17.00
2018-11-01T07:08:38.390Z,17.01
2018-11-01T07:11:06.036Z,17.02
2018-11-01T07:13:33.755Z,17.02
2018-11-01T07:16:01.389Z,17.03
2018-11-01T07:18:29.078Z,17.06
2018-11-01T07:20:56.763Z,17.12
2018-11-01T07:23:24.366Z,17.13
2018-11-01T07:25:52.020Z,17.09
2018-11-01T07:28:19.657Z,17.08
2018-11-01T07:30:47.315Z,17.09
2018-11-01T07:33:14.943Z,17.08
2018-11-01T07:35:42.648Z,17.09
2018-11-01T07:38:10.372Z,17.09
2018-11-01T07:40:37.987Z,17.09
2018-11-01T07:43:05.666Z,17.13
2018-11-01T07:45:33.303Z,17.13
2018-11-01T07:48:00.904Z,17.14
2018-11-01T07:50:28.582Z,17.14
2018-11-01T07:52:56.194Z,17.13
2018-11-01T07:55:23.801Z,17.10
2018-11-01T07:57:51.476Z,17.12
2018-11-01T08:00:19.166Z,17.14
2018-11-01T08:02:47.340Z,17.13
2018-11-01T08:05:15.414Z,17.12
2018-11-01T08:07:43.107Z,17.13
2018-11-01T08:10:13.787Z,17.17
2018-11-01T08:12:42.499Z,17.16
2018-11-01T08:15:12.418Z,17.13
2018-11-01T08:17:40.157Z,17.14
2018-11-01T08:20:09.035Z,17.16
2018-11-01T08:22:36.536Z,17.16
2018-11-01T08:25:04.248Z,17.15
2018-11-01T08:27:31.964Z,17.19
2018-11-01T08:29:59.861Z,17.21
2018-11-01T08:32:27.598Z,17.20
2018-11-01T08:34:55.242Z,17.22
2018-11-01T08:37:22.876Z,17.24
2018-11-01T08:39:50.786Z,17.22
2018-11-01T08:42:18.421Z,17.24
2018-11-01T08:44:46.073Z,17.23
2018-11-01T08:47:13.800Z,17.26
2018-11-01T08:49:42.165Z,17.26
2018-11-01T08:52:09.829Z,17.28
2018-11-01T08:54:37.564Z,17.26
2018-11-01T08:57:05.638Z,17.25
2018-11-01T08:59:33.309Z,17.28
2018-11-01T09:02:00.929Z,17.28
2018-11-01T09:04:28.603Z,17.29
2018-11-01T09:06:56.301Z,17.28
2018-11-01T09:09:23.927Z,17.29
2018-11-01T09:11:51.606Z,17.32
2018-11-01T09:14:19.341Z,17.32
2018-11-01T09:16:47.021Z,17.33
2018-11-01T09:19:14.831Z,17.33
2018-11-01T09:21:42.459Z,17.33
2018-11-01T09:24:10.124Z,17.36
2018-11-01T09:26:37.756Z,17.36
2018-11-01T09:29:05.545Z,17.36
2018-11-01T09:31:33.233Z,17.37
2018-11-01T09:34:00.888Z,17.38
2018-11-01T09:36:28.588Z,17.35
2018-11-01T09:38:56.165Z,17.39
2018-11-01T09:41:23.820Z,17.39
2018-11-01T09:43:51.485Z,17.41
2018-11-01T09:46:19.245Z,17.38
2018-11-01T09:48:46.853Z,17.41
2018-11-01T09:51:14.480Z,17.44
2018-11-01T09:53:42.171Z,17.46
2018-11-01T09:56:09.965Z,17.48
2018-11-01T09:58:37.590Z,17.51
2018-11-01T10:01:05.287Z,17.54
2018-11-01T10:03:32.956Z,17.56
2018-11-01T10:06:00.684Z,17.59
2018-11-01T10:08:28.292Z,17.58
2018-11-01T10:10:56.028Z,17.57
2018-11-01T10:13:23.619Z,17.60
2018-11-01T10:15:51.465Z,17.60
2018-11-01T10:18:19.283Z,17.62
2018-11-01T10:20:46.665Z,17.62
2018-11-01T10:23:14.351Z,17.64
2018-11-01T10:25:42.020Z,17.64
2018-11-01T10:28:09.693Z,17.65
2018-11-01T10:30:37.398Z,17.65
2018-11-01T10:33:05.092Z,17.68
2018-11-01T10:35:32.703Z,17.69
2018-11-01T10:38:00.422Z,17.71
2018-11-01T10:40:28.048Z,17.72
2018-11-01T10:42:55.692Z,17.73
2018-11-01T10:45:23.347Z,17.74
2018-11-01T10:47:51.177Z,17.76
2018-11-01T10:50:19.908Z,17.77
2018-11-01T10:52:47.591Z,17.78
2018-11-01T10:55:15.226Z,17.79
2018-11-01T10:57:42.876Z,17.82
2018-11-01T11:00:16.577Z,17.82
2018-11-01T11:02:46.619Z,17.83
2018-11-01T11:05:15.055Z,17.86
2018-11-01T11:07:42.690Z,17.87
2018-11-01T11:10:10.320Z,17.88
2018-11-01T11:12:37.993Z,17.91
2018-11-01T11:15:06.529Z,17.92
2018-11-01T11:17:34.164Z,17.94
2018-11-01T11:20:02.032Z,17.95
2018-11-01T11:22:29.667Z,17.98
2018-11-01T11:24:57.335Z,17.97
2018-11-01T11:27:24.986Z,17.96
2018-11-01T11:29:52.761Z,18.03
2018-11-01T11:32:20.371Z,18.06
2018-11-01T11:34:48.044Z,18.07
2018-11-01T11:37:15.725Z,18.08
2018-11-01T11:39:43.485Z,18.10
2018-11-01T11:42:11.090Z,18.12
2018-11-01T11:44:38.802Z,18.14
2018-11-01T11:47:06.445Z,18.15
2018-11-01T11:49:34.079Z,18.15
2018-11-01T11:52:01.780Z,18.17
2018-11-01T11:54:29.381Z,18.19
2018-11-01T11:56:57.114Z,18.22
2018-11-01T11:59:24.745Z,18.30
2018-11-01T12:01:52.425Z,18.32
2018-11-01T12:04:20.041Z,18.33
2018-11-01T12:06:47.705Z,18.34
2018-11-01T12:09:15.429Z,18.36
2018-11-01T12:11:43.107Z,18.35
2018-11-01T12:14:10.834Z,18.36
2018-11-01T12:16:38.552Z,18.36
2018-11-01T12:19:06.239Z,18.37
2018-11-01T12:21:33.936Z,18.38
2018-11-01T12:24:01.609Z,18.39
2018-11-01T12:26:29.275Z,18.38
2018-11-01T12:28:57.057Z,18.37
2018-11-01T12:31:24.604Z,18.38
2018-11-01T12:33:52.306Z,18.37
2018-11-01T12:36:19.964Z,18.37
2018-11-01T12:38:47.608Z,18.37
2018-11-01T12:41:15.321Z,18.38
2018-11-01T12:43:43.170Z,18.38
2018-11-01T12:46:10.970Z,18.36
2018-11-01T12:48:38.995Z,18.35
2018-11-01T12:51:06.765Z,18.32
2018-11-01T12:53:34.640Z,18.31
2018-11-01T12:56:02.317Z,18.27
2018-11-01T12:58:29.949Z,18.25
2018-11-01T13:00:57.578Z,18.25
2018-11-01T13:03:25.668Z,18.24
2018-11-01T13:05:53.464Z,18.24
2018-11-01T13:08:21.130Z,18.23
2018-11-01T13:10:49.116Z,18.23
2018-11-01T13:13:16.796Z,18.21
2018-11-01T13:15:44.448Z,18.20
2018-11-01T13:18:12.289Z,18.19
2018-11-01T13:20:39.966Z,18.18
2018-11-01T13:23:07.576Z,18.17
2018-11-01T13:25:35.279Z,18.18
2018-11-01T13:28:02.922Z,18.19
2018-11-01T13:30:30.496Z,18.20
2018-11-01T13:32:58.101Z,18.20
2018-11-01T13:35:25.829Z,18.20
2018-11-01T13:37:53.455Z,18.20
2018-11-01T13:40:21.531Z,18.19
2018-11-01T13:42:48.798Z,18.20
2018-11-01T13:45:16.436Z,18.21
2018-11-01T13:47:44.105Z,18.21
2018-11-01T13:50:12.189Z,18.20
2018-11-01T13:52:40.203Z,18.19
2018-11-01T13:55:09.244Z,18.18
2018-11-01T13:57:36.825Z,18.19
2018-11-01T14:00:04.815Z,18.20
2018-11-01T14:02:38.280Z,18.19
2018-11-01T14:05:08.195Z,18.19
2018-11-01T14:07:35.784Z,18.17
2018-11-01T14:10:03.772Z,18.14
2018-11-01T14:12:31.386Z,18.12
2018-11-01T14:14:59.244Z,18.09
2018-11-01T14:17:26.656Z,18.08
2018-11-01T14:19:54.276Z,18.07
2018-11-01T14:22:21.885Z,18.06
2018-11-01T14:24:49.558Z,18.04
2018-11-01T14:27:17.296Z,18.04
2018-11-01T14:29:44.888Z,18.02
2018-11-01T14:32:12.558Z,18.00
2018-11-01T14:34:40.147Z,17.98
2018-11-01T14:37:07.748Z,17.95
2018-11-01T14:39:35.422Z,17.95
2018-11-01T14:42:03.152Z,17.93
2018-11-01T14:44:30.872Z,17.91
2018-11-01T14:46:58.552Z,17.91
2018-11-01T14:49:26.172Z,17.89
2018-11-01T14:51:53.887Z,17.90
2018-11-01T14:54:22.472Z,17.88
2018-11-01T14:56:50.471Z,17.85
2018-11-01T14:59:17.914Z,17.84
2018-11-01T15:01:44.648Z,17.83
2018-11-01T15:04:12.316Z,17.80
2018-11-01T15:06:39.985Z,17.81
2018-11-01T15:09:09.730Z,17.79
2018-11-01T15:11:37.509Z,17.79
2018-11-01T15:14:05.204Z,17.78
2018-11-01T15:16:32.839Z,17.76
2018-11-01T15:19:00.572Z,17.76
2018-11-01T15:21:28.148Z,17.76
2018-11-01T15:23:55.782Z,17.75
2018-11-01T15:26:23.554Z,17.74
2018-11-01T15:28:51.126Z,17.72
2018-11-01T15:31:18.840Z,17.71
2018-11-01T15:33:46.580Z,17.66
2018-11-01T15:36:14.181Z,17.70
2018-11-01T15:38:41.808Z,17.68
2018-11-01T15:41:10.639Z,17.69
2018-11-01T15:43:38.408Z,17.68
2018-11-01T15:46:06.480Z,17.66
2018-11-01T15:48:34.235Z,17.65
2018-11-01T15:51:01.811Z,17.61
2018-11-01T15:53:29.404Z,17.62
2018-11-01T15:55:57.337Z,17.59
2018-11-01T15:58:25.094Z,17.63
2018-11-01T16:00:54.371Z,17.63
2018-11-01T16:03:22.179Z,17.61
2018-11-01T16:05:49.810Z,17.60
2018-11-01T16:08:17.493Z,17.59
2018-11-01T16:10:45.124Z,17.58
2018-11-01T16:13:12.791Z,17.58
2018-11-01T16:15:40.406Z,17.57
2018-11-01T16:18:08.117Z,17.56
2018-11-01T16:20:35.778Z,17.55
2018-11-01T16:23:03.447Z,17.55
2018-11-01T16:25:31.150Z,17.55
2018-11-01T16:27:58.801Z,17.55
2018-11-01T16:30:26.431Z,17.53
2018-11-01T16:32:54.119Z,17.52
2018-11-01T16:35:21.744Z,17.53
2018-11-01T16:37:49.375Z,17.50
2018-11-01T16:40:17.064Z,17.51
2018-11-01T16:42:44.853Z,17.51
2018-11-01T16:45:14.165Z,17.51
2018-11-01T16:47:42.077Z,17.51
2018-11-01T16:50:09.997Z,17.51
2018-11-01T16:52:38.302Z,17.49
2018-11-01T16:55:06.014Z,17.48
2018-11-01T16:57:33.669Z,17.49
2018-11-01T17:00:01.353Z,17.48
2018-11-01T17:02:28.956Z,17.47
2018-11-01T17:04:56.654Z,17.47
2018-11-01T17:07:24.260Z,17.46
2018-11-01T17:09:51.887Z,17.44
2018-11-01T17:12:19.582Z,17.45
2018-11-01T17:14:47.208Z,17.44
2018-11-01T17:17:14.812Z,17.45
2018-11-01T17:19:42.497Z,17.43
2018-11-01T17:22:10.157Z,17.44
2018-11-01T17:24:37.743Z,17.45
2018-11-01T17:27:05.757Z,17.44
2018-11-01T17:29:33.455Z,17.43
2018-11-01T17:32:01.213Z,17.43
2018-11-01T17:34:28.837Z,17.44
2018-11-01T17:36:56.478Z,17.42
2018-11-01T17:39:24.111Z,17.41
2018-11-01T17:41:51.749Z,17.43
2018-11-01T17:44:19.483Z,17.42
2018-11-01T17:46:47.080Z,17.42
2018-11-01T17:49:14.938Z,17.42
2018-11-01T17:51:42.664Z,17.39
2018-11-01T17:54:15.508Z,17.37
2018-11-01T17:56:44.066Z,17.39
2018-11-01T17:59:11.798Z,17.37
2018-11-01T18:01:39.572Z,17.39
2018-11-01T18:04:07.748Z,17.38
2018-11-01T18:06:35.618Z,17.37
2018-11-01T18:09:04.591Z,17.42
2018-11-01T18:11:32.603Z,17.49
2018-11-01T18:14:00.244Z,17.54
2018-11-01T18:16:27.886Z,17.60
2018-11-01T18:18:55.546Z,17.69
2018-11-01T18:21:23.291Z,17.75
2018-11-01T18:23:50.947Z,17.81
2018-11-01T18:26:18.616Z,17.85
2018-11-01T18:28:46.343Z,17.89
2018-11-01T18:31:13.985Z,17.92
2018-11-01T18:33:41.705Z,17.96
2018-11-01T18:36:09.446Z,17.98
2018-11-01T18:38:38.380Z,18.02
2018-11-01T18:41:06.126Z,18.04
2018-11-01T18:43:33.815Z,18.07
2018-11-01T18:46:01.683Z,18.08
2018-11-01T18:48:29.424Z,18.08
2018-11-01T18:50:56.994Z,18.09
2018-11-01T18:53:24.740Z,18.09
2018-11-01T18:55:52.436Z,18.15
2018-11-01T18:58:20.073Z,18.16
2018-11-01T19:00:47.837Z,18.18
2018-11-01T19:03:19.042Z,18.19
2018-11-01T19:05:46.734Z,18.22
2018-11-01T19:08:14.350Z,18.19
2018-11-01T19:10:41.980Z,18.18
2018-11-01T19:13:09.663Z,18.19
2018-11-01T19:15:37.326Z,18.21
2018-11-01T19:18:05.071Z,18.24
2018-11-01T19:20:32.712Z,18.22
2018-11-01T19:23:00.441Z,18.22
2018-11-01T19:25:28.156Z,18.23
2018-11-01T19:27:55.938Z,18.23
2018-11-01T19:30:23.641Z,18.25
2018-11-01T19:32:51.267Z,18.24
2018-11-01T19:35:18.976Z,18.21
2018-11-01T19:37:46.648Z,18.19
2018-11-01T19:40:15.262Z,18.20
2018-11-01T19:42:43.315Z,18.23
2018-11-01T19:45:11.008Z,18.22
2018-11-01T19:47:38.851Z,18.22
2018-11-01T19:50:07.900Z,18.21
2018-11-01T19:52:35.636Z,18.19
2018-11-01T19:55:03.341Z,18.17
2018-11-01T19:57:30.980Z,18.16
2018-11-01T19:59:59.029Z,18.16
2018-11-01T20:02:26.769Z,18.15
2018-11-01T20:04:54.450Z,18.14
2018-11-01T20:07:22.103Z,18.14
2018-11-01T20:09:49.776Z,18.14
2018-11-01T20:12:17.468Z,18.14
2018-11-01T20:14:45.146Z,18.12
2018-11-01T20:17:12.773Z,18.11
2018-11-01T20:19:40.414Z,18.12
2018-11-01T20:22:08.117Z,18.14
2018-11-01T20:24:36.013Z,18.14
2018-11-01T20:27:03.643Z,18.13
2018-11-01T20:29:31.352Z,18.12
2018-11-01T20:31:59.101Z,18.13
2018-11-01T20:34:26.729Z,18.12
2018-11-01T20:36:54.378Z,18.13
2018-11-01T20:39:22.071Z,18.13
2018-11-01T20:41:49.701Z,18.09
2018-11-01T20:44:17.428Z,18.08
2018-11-01T20:46:45.220Z,18.06
2018-11-01T20:49:12.853Z,18.09
2018-11-01T20:51:40.520Z,18.08
2018-11-01T20:54:08.187Z,18.07
2018-11-01T20:56:35.834Z,18.06
2018-11-01T20:59:03.508Z,18.04
2018-11-01T21:01:31.176Z,18.03
2018-11-01T21:03:58.852Z,18.02
2018-11-01T21:06:26.521Z,18.01
2018-11-01T21:08:54.181Z,18.01
2018-11-01T21:11:22.214Z,18.01
2018-11-01T21:13:50.138Z,17.99
2018-11-01T21:16:17.802Z,18.01
2018-11-01T21:18:45.681Z,17.99
2018-11-01T21:21:13.355Z,17.99
2018-11-01T21:23:41.191Z,18.00
2018-11-01T21:26:08.817Z,17.99
2018-11-01T21:28:36.451Z,17.95
2018-11-01T21:31:04.149Z,17.94
2018-11-01T21:33:31.804Z,17.96
2018-11-01T21:35:59.688Z,17.93
2018-11-01T21:38:27.184Z,17.94
2018-11-01T21:40:54.878Z,17.94
2018-11-01T21:43:22.514Z,17.92
2018-11-01T21:45:50.224Z,17.92
2018-11-01T21:48:17.840Z,17.92
2018-11-01T21:50:45.447Z,17.90
2018-11-01T21:53:13.326Z,17.91
2018-11-01T21:55:40.791Z,17.92
2018-11-01T21:58:08.488Z,17.89
2018-11-01T22:00:36.156Z,17.85
2018-11-01T22:03:03.846Z,17.90
2018-11-01T22:05:31.485Z,17.89
2018-11-01T22:07:59.148Z,17.89
2018-11-01T22:10:26.803Z,17.87
2018-11-01T22:12:54.433Z,17.85
2018-11-01T22:15:22.089Z,17.88
2018-11-01T22:17:49.825Z,17.88
2018-11-01T22:20:17.460Z,17.89
2018-11-01T22:22:45.137Z,17.87
2018-11-01T22:25:12.813Z,17.87
2018-11-01T22:27:40.426Z,17.88
2018-11-01T22:30:09.235Z,17.90
2018-11-01T22:32:36.899Z,17.94
2018-11-01T22:35:04.917Z,18.00
2018-11-01T22:37:32.523Z,17.95
2018-11-01T22:40:00.167Z,17.94
2018-11-01T22:42:27.786Z,17.93
2018-11-01T22:44:55.536Z,17.91
2018-11-01T22:47:23.208Z,17.92
2018-11-01T22:49:50.864Z,17.94
2018-11-01T22:52:18.475Z,17.94
2018-11-01T22:54:46.176Z,17.94
2018-11-01T22:57:13.777Z,17.95
2018-11-01T22:59:41.483Z,17.94
2018-11-01T23:02:09.152Z,17.93
2018-11-01T23:04:36.829Z,17.91
2018-11-01T23:07:04.646Z,17.87
2018-11-01T23:09:32.268Z,17.86
2018-11-01T23:12:00.015Z,17.85
2018-11-01T23:14:27.958Z,17.86
2018-11-01T23:16:55.596Z,17.86
2018-11-01T23:19:23.306Z,17.85
2018-11-01T23:21:50.956Z,17.83
2018-11-01T23:24:18.580Z,17.84
2018-11-01T23:26:46.227Z,17.84
2018-11-01T23:29:13.920Z,17.84
2018-11-01T23:31:41.538Z,17.84
2018-11-01T23:34:09.206Z,17.85
2018-11-01T23:36:42.502Z,17.83
2018-11-01T23:39:15.561Z,17.83
2018-11-01T23:41:48.729Z,17.85
2018-11-01T23:44:22.232Z,17.82
2018-11-01T23:46:55.780Z,17.80
2018-11-01T23:50:27.538Z,17.85
2018-11-01T23:52:57.491Z,17.82
2018-11-01T23:55:25.165Z,17.83
2018-11-01T23:57:52.801Z,17.82
